Time;durP1;ratioP1;P1;durP2;ratioP2;P2;SDS_P1;SDS_P2;PMS_P1;PMS_P2;Temp;Humidity;BMP_temperature;BMP_pressure;BME280_temperature;BME280_humidity;BME280_pressure;Samples;Min_cycle;Max_cycle;Signal;HPM_P1;HPM_P2
2022/02/24 00:00:08;;;;;;;3.90;0.80;;;;;;;8.26;77.70;100844.81;5013232;28;20029;-75
2022/02/24 00:02:37;;;;;;;;;;;;;;;8.30;77.46;100840.34;4993045;28;20069;-75
2022/02/24 00:05:03;;;;;;;5.75;0.77;;;;;;;8.27;77.23;100827.56;5014166;28;19948;-74
2022/02/24 00:07:28;;;;;;;1.67;0.85;;;;;;;8.35;77.64;100818.63;5014084;28;20046;-75
2022/02/24 00:09:54;;;;;;;0.90;0.63;;;;;;;8.29;77.33;100821.88;5008589;28;20030;-74
2022/02/24 00:12:19;;;;;;;3.17;0.50;;;;;;;8.42;77.10;100832.28;5007377;28;20072;-76
2022/02/24 00:14:46;;;;;;;0.50;0.50;;;;;;;8.29;77.53;100832.59;5013333;28;20030;-75
2022/02/24 00:17:12;;;;;;;3.20;0.55;;;;;;;8.30;77.38;100818.09;5010424;28;20604;-76
2022/02/24 00:19:37;;;;;;;0.50;0.50;;;;;;;8.32;77.55;100808.59;4995201;28;20038;-76
2022/02/24 00:22:04;;;;;;;1.40;0.68;;;;;;;8.27;77.63;100808.81;5010041;28;20030;-75
2022/02/24 00:24:30;;;;;;;0.65;0.50;;;;;;;8.29;77.35;100808.47;5012827;28;20038;-75
2022/02/24 00:26:55;;;;;;;0.57;0.45;;;;;;;8.36;77.56;100809.50;5013639;28;20061;-76
2022/02/24 00:29:23;;;;;;;1.02;0.50;;;;;;;8.38;76.82;100807.22;4994952;28;20033;-76
2022/02/24 00:31:48;;;;;;;0.88;0.45;;;;;;;8.54;76.67;100808.13;4997622;28;20025;-75
2022/02/24 00:34:15;;;;;;;2.47;0.50;;;;;;;8.46;76.33;100798.28;5013425;28;20559;-76
2022/02/24 00:36:42;;;;;;;1.17;0.70;;;;;;;8.30;77.17;100788.56;5013387;28;20037;-75
2022/02/24 00:39:08;;;;;;;0.75;0.60;;;;;;;8.43;76.72;100796.28;5001596;28;20124;-75
2022/02/24 00:41:34;;;;;;;0.88;0.77;;;;;;;8.52;76.46;100794.25;5012097;28;20116;-74
2022/02/24 00:46:26;;;;;;;1.92;0.98;;;;;;;8.46;76.78;100794.84;4994904;28;20734;-71
2022/02/24 00:48:51;;;;;;;0.30;0.30;;;;;;;8.40;77.38;100786.22;5005366;28;20038;-72
2022/02/24 00:51:16;;;;;;;0.45;0.40;;;;;;;8.37;77.64;100783.41;5012442;28;20038;-72
2022/02/24 00:53:42;;;;;;;1.25;0.65;;;;;;;8.38;77.63;100783.06;5009494;28;20053;-72
2022/02/24 00:56:08;;;;;;;1.05;0.88;;;;;;;8.34;77.69;100784.91;5013425;28;20034;-71
2022/02/24 00:58:34;;;;;;;4.05;1.52;;;;;;;8.28;78.19;100778.19;5010311;28;20042;-71
2022/02/24 01:00:59;;;;;;;0.57;0.57;;;;;;;8.40;77.93;100778.16;5003947;28;20050;-71
2022/02/24 01:03:25;;;;;;;1.17;0.90;;;;;;;8.38;77.12;100772.34;5010063;28;20041;-72
2022/02/24 01:05:50;;;;;;;0.65;0.50;;;;;;;8.34;77.93;100776.84;5012462;28;20038;-71
2022/02/24 01:08:16;;;;;;;2.67;0.55;;;;;;;8.35;77.40;100761.50;5008284;28;20375;-71
2022/02/24 01:10:41;;;;;;;1.63;0.73;;;;;;;8.31;77.72;100763.31;4999706;28;20445;-73
2022/02/24 01:13:07;;;;;;;3.75;0.50;;;;;;;8.24;78.00;100758.47;5012785;28;20030;-71
2022/02/24 01:15:32;;;;;;;3.00;0.75;;;;;;;8.18;78.00;100754.47;5012394;28;20486;-71
2022/02/24 01:17:58;;;;;;;0.50;0.50;;;;;;;8.16;77.81;100757.47;5010548;28;20056;-71
2022/02/24 01:20:23;;;;;;;2.75;0.60;;;;;;;8.13;78.16;100744.72;4999009;28;20736;-71
2022/02/24 01:22:49;;;;;;;0.73;0.68;;;;;;;8.14;78.67;100740.94;5011910;28;20125;-70
2022/02/24 01:25:18;;;;;;;0.57;0.50;;;;;;;8.12;78.13;100742.38;5012225;28;20444;-71
2022/02/24 01:27:44;;;;;;;1.60;0.60;;;;;;;8.07;78.68;100734.56;5005305;28;20049;-71
2022/02/24 01:30:10;;;;;;;3.75;0.50;;;;;;;8.14;78.35;100718.69;5006157;28;20030;-71
2022/02/24 01:32:35;;;;;;;3.42;1.05;;;;;;;8.15;77.69;100720.25;5004159;28;20117;-71
2022/02/24 01:35:01;;;;;;;1.98;0.98;;;;;;;8.17;77.87;100721.47;5001462;28;20030;-71
2022/02/24 01:37:27;;;;;;;3.08;0.65;;;;;;;8.07;78.24;100713.88;5010254;28;20073;-71
2022/02/24 01:39:53;;;;;;;4.55;0.82;;;;;;;8.12;77.83;100710.19;5002404;28;20435;-73
2022/02/24 01:42:19;;;;;;;0.82;0.82;;;;;;;8.03;78.27;100704.19;5004963;28;20072;-72
2022/02/24 01:44:45;;;;;;;2.30;0.65;;;;;;;8.01;78.40;100709.09;5001574;28;20475;-72
2022/02/24 01:47:11;;;;;;;3.35;0.63;;;;;;;7.99;78.76;100706.72;4999799;28;20430;-71
2022/02/24 01:49:38;;;;;;;1.95;1.35;;;;;;;7.90;78.57;100700.72;4997300;28;20112;-71
2022/02/24 01:52:06;;;;;;;0.35;0.35;;;;;;;7.83;78.61;100697.81;5003464;28;20038;-71
2022/02/24 01:54:34;;;;;;;2.50;0.90;;;;;;;7.80;79.30;100695.03;4999533;28;20490;-71
2022/02/24 01:57:00;;;;;;;0.90;0.50;;;;;;;7.76;79.33;100692.22;5007589;28;20037;-71
2022/02/24 01:59:26;;;;;;;1.50;0.57;;;;;;;7.76;79.46;100689.53;5006452;28;20033;-72
2022/02/24 02:01:52;;;;;;;6.68;0.77;;;;;;;7.77;79.08;100679.59;5005891;28;20470;-71
2022/02/24 02:04:17;;;;;;;0.63;0.40;;;;;;;7.66;79.64;100662.41;5011404;28;20032;-71
2022/02/24 02:06:43;;;;;;;0.68;0.40;;;;;;;7.73;80.14;100670.66;5011471;28;20042;-73
2022/02/24 02:09:10;;;;;;;0.93;0.57;;;;;;;7.70;79.26;100674.03;5008552;28;20041;-71
2022/02/24 02:11:36;;;;;;;1.70;0.80;;;;;;;7.67;80.30;100672.00;4994295;28;20562;-72
2022/02/24 02:14:02;;;;;;;0.90;0.50;;;;;;;7.69;80.40;100675.13;4996302;28;20042;-73
2022/02/24 02:16:28;;;;;;;0.45;0.45;;;;;;;7.64;81.21;100672.69;5011640;28;20034;-71
2022/02/24 02:18:53;;;;;;;2.38;1.10;;;;;;;7.79;80.53;100661.28;5002852;28;20037;-74
2022/02/24 02:21:19;;;;;;;2.85;0.80;;;;;;;7.73;80.09;100657.25;5010496;28;20033;-71
2022/02/24 02:23:44;;;;;;;0.88;0.88;;;;;;;7.70;80.72;100657.94;5011247;28;20529;-71
2022/02/24 02:26:10;;;;;;;1.02;0.63;;;;;;;7.67;80.55;100648.66;5006029;28;20549;-72
2022/02/24 02:28:35;;;;;;;2.22;0.70;;;;;;;7.64;80.96;100646.66;5006496;28;20037;-72
2022/02/24 02:31:00;;;;;;;0.50;0.47;;;;;;;7.65;81.23;100647.44;5010481;28;20562;-71
2022/02/24 02:33:26;;;;;;;2.33;0.98;;;;;;;7.59;80.47;100646.13;5011515;28;20033;-71
2022/02/24 02:35:51;;;;;;;2.90;0.70;;;;;;;7.64;81.24;100645.88;4998978;28;20041;-71
2022/02/24 02:38:17;;;;;;;1.42;0.60;;;;;;;7.78;81.13;100641.72;5005907;28;20443;-71
2022/02/24 02:40:42;;;;;;;1.48;0.65;;;;;;;8.02;79.88;100632.88;5010085;28;20500;-72
2022/02/24 02:43:08;;;;;;;2.45;0.63;;;;;;;8.13;79.32;100620.56;5007605;28;20052;-71
2022/02/24 02:45:38;;;;;;;0.68;0.50;;;;;;;8.22;78.62;100623.91;5010395;28;20056;-71
2022/02/24 02:48:05;;;;;;;0.50;0.50;;;;;;;8.15;78.05;100621.81;5000339;28;20088;-71
2022/02/24 02:50:32;;;;;;;0.82;0.70;;;;;;;8.11;77.97;100618.22;4998999;28;20537;-71
2022/02/24 02:53:01;;;;;;;1.15;0.70;;;;;;;8.11;78.01;100614.75;5011098;28;20072;-71
2022/02/24 02:55:26;;;;;;;0.70;0.65;;;;;;;8.24;78.31;100610.94;5010851;28;20029;-72
2022/02/24 02:57:52;;;;;;;0.85;0.70;;;;;;;8.32;77.00;100606.59;5005497;28;20452;-71
2022/02/24 03:00:18;;;;;;;4.10;0.70;;;;;;;8.35;77.00;100609.38;5009278;28;20049;-71
2022/02/24 03:02:43;;;;;;;1.63;0.90;;;;;;;8.38;76.59;100606.00;5010579;28;20060;-71
2022/02/24 03:05:09;;;;;;;0.70;0.70;;;;;;;8.24;77.10;100605.59;5003148;28;20042;-71
2022/02/24 03:07:35;;;;;;;1.08;0.60;;;;;;;8.23;77.59;100601.31;5008552;28;20033;-73
2022/02/24 03:10:03;;;;;;;2.75;0.70;;;;;;;8.35;76.71;100606.69;5004422;28;20049;-71
2022/02/24 03:12:29;;;;;;;1.25;0.90;;;;;;;8.32;76.92;100585.13;4990191;28;20034;-71
2022/02/24 03:14:54;;;;;;;0.93;0.73;;;;;;;8.35;76.52;100595.16;5009588;28;20037;-71
2022/02/24 03:17:22;;;;;;;2.70;0.93;;;;;;;8.20;76.76;100583.25;5009748;28;20092;-71
2022/02/24 03:19:47;;;;;;;1.80;0.73;;;;;;;8.29;76.82;100586.59;5007539;28;20117;-72
2022/02/24 03:22:13;;;;;;;3.05;1.00;;;;;;;8.38;76.59;100589.91;5010072;28;20134;-72
2022/02/24 03:24:39;;;;;;;1.23;0.80;;;;;;;8.35;76.37;100579.06;5010438;28;20414;-72
2022/02/24 03:27:05;;;;;;;3.53;0.60;;;;;;;8.27;76.80;100580.00;5004721;28;20038;-72
2022/02/24 03:29:31;;;;;;;0.57;0.40;;;;;;;8.42;76.91;100569.31;5009094;28;20049;-71
2022/02/24 03:31:57;;;;;;;0.77;0.60;;;;;;;8.47;75.74;100574.47;5010795;28;20033;-71
2022/02/24 03:34:23;;;;;;;0.98;0.70;;;;;;;8.57;76.15;100576.66;4999634;28;20038;-72
2022/02/24 03:36:49;;;;;;;0.70;0.70;;;;;;;8.52;75.66;100573.41;4993231;28;20057;-71
2022/02/24 03:39:14;;;;;;;4.05;0.65;;;;;;;8.63;75.62;100566.44;5008986;28;20125;-71
2022/02/24 03:41:41;;;;;;;2.05;0.85;;;;;;;8.41;75.74;100573.13;5009797;28;20100;-71
2022/02/24 03:44:07;;;;;;;1.52;0.95;;;;;;;8.30;76.50;100565.91;5010457;28;20042;-71
2022/02/24 03:46:32;;;;;;;0.50;0.50;;;;;;;8.25;76.73;100568.81;5000337;28;20029;-71
2022/02/24 03:48:58;;;;;;;1.00;0.70;;;;;;;8.24;76.97;100557.31;4989962;28;20041;-73
2022/02/24 03:51:23;;;;;;;0.98;0.65;;;;;;;8.23;77.09;100566.47;4999970;28;20042;-71
2022/02/24 03:53:49;;;;;;;1.17;0.90;;;;;;;8.43;76.96;100560.16;5008500;28;20030;-73
2022/02/24 03:56:14;;;;;;;2.67;1.02;;;;;;;8.37;76.76;100556.16;5002638;28;20030;-71
2022/02/24 03:58:40;;;;;;;2.72;0.68;;;;;;;8.44;76.43;100550.22;5009248;28;20038;-70
2022/02/24 04:01:05;;;;;;;1.60;0.60;;;;;;;8.28;76.80;100542.13;5009161;28;20487;-70
2022/02/24 04:03:31;;;;;;;0.80;0.57;;;;;;;8.29;76.94;100545.56;5007694;28;20037;-71
2022/02/24 04:05:56;;;;;;;1.48;0.90;;;;;;;8.27;77.43;100545.13;4992111;28;20051;-70
2022/02/24 04:08:22;;;;;;;1.58;0.50;;;;;;;8.33;77.26;100547.22;5007653;28;20038;-70
2022/02/24 04:10:47;;;;;;;2.42;0.73;;;;;;;8.41;76.81;100538.25;5006293;28;20025;-70
2022/02/24 04:13:13;;;;;;;0.50;0.50;;;;;;;8.39;77.00;100550.44;5008478;28;20042;-70
2022/02/24 04:15:39;;;;;;;1.15;0.70;;;;;;;8.29;77.68;100526.78;5013199;28;20121;-69
2022/02/24 04:18:05;;;;;;;3.33;1.17;;;;;;;8.28;77.79;100542.13;5013148;28;20045;-70
2022/02/24 04:20:31;;;;;;;0.77;0.77;;;;;;;8.28;78.07;100531.41;5000869;28;20030;-69
2022/02/24 04:22:57;;;;;;;0.60;0.60;;;;;;;8.18;78.92;100531.84;5013010;28;20623;-71
2022/02/24 04:25:23;;;;;;;3.08;0.80;;;;;;;8.34;78.04;100535.41;5007399;28;20042;-69
2022/02/24 04:27:50;;;;;;;1.00;0.80;;;;;;;8.27;78.81;100531.72;5012915;28;20045;-70
2022/02/24 04:30:17;;;;;;;3.65;1.42;;;;;;;8.35;78.90;100526.22;5012245;28;20658;-71
2022/02/24 04:32:43;;;;;;;0.65;0.50;;;;;;;8.44;78.44;100537.56;5005518;28;20121;-70
2022/02/24 04:35:09;;;;;;;2.08;0.90;;;;;;;8.50;78.72;100527.34;4997381;28;20486;-71
2022/02/24 04:37:35;;;;;;;0.98;0.77;;;;;;;8.49;78.34;100526.59;5000880;28;20435;-70
2022/02/24 04:40:02;;;;;;;6.05;0.95;;;;;;;8.47;78.26;100520.78;5008789;28;20516;-71
2022/02/24 04:42:27;;;;;;;1.20;0.68;;;;;;;8.58;78.19;100513.78;5005753;28;20088;-71
2022/02/24 04:44:53;;;;;;;1.00;0.88;;;;;;;8.64;77.81;100509.72;5006634;28;20030;-71
2022/02/24 04:47:18;;;;;;;0.50;0.50;;;;;;;8.52;78.37;100506.31;5008537;28;20129;-70
2022/02/24 04:49:45;;;;;;;1.67;0.80;;;;;;;8.54;78.47;100510.22;5002506;28;20034;-70
2022/02/24 04:52:10;;;;;;;3.08;1.38;;;;;;;8.45;78.77;100511.50;5011664;28;20551;-71
2022/02/24 04:54:36;;;;;;;0.70;0.70;;;;;;;8.57;78.82;100512.25;5013185;28;20037;-70
2022/02/24 04:57:01;;;;;;;4.15;1.00;;;;;;;8.57;78.62;100501.50;5012747;28;20409;-70
2022/02/24 04:59:26;;;;;;;2.58;1.10;;;;;;;8.44;79.30;100500.00;4991033;28;20410;-71
2022/02/24 05:01:52;;;;;;;1.00;0.73;;;;;;;8.45;79.63;100496.19;4998054;28;20085;-70
2022/02/24 05:04:17;;;;;;;1.98;0.95;;;;;;;8.43;79.90;100498.44;4994148;28;20041;-70
2022/02/24 05:06:43;;;;;;;0.80;0.70;;;;;;;8.31;80.44;100493.13;5007940;28;20034;-71
2022/02/24 05:09:08;;;;;;;0.82;0.57;;;;;;;8.28;80.91;100488.47;5011372;28;20034;-70
2022/02/24 05:11:34;;;;;;;1.40;0.60;;;;;;;8.45;80.24;100484.69;5009781;28;20049;-70
2022/02/24 05:14:00;;;;;;;2.42;0.90;;;;;;;8.53;80.11;100487.22;5011802;28;20053;-71
2022/02/24 05:16:25;;;;;;;3.65;1.10;;;;;;;8.46;80.50;100473.59;5012440;28;20037;-70
2022/02/24 05:18:51;;;;;;;1.35;0.90;;;;;;;8.48;80.47;100478.66;5008405;28;20026;-71
2022/02/24 05:21:17;;;;;;;1.30;0.90;;;;;;;8.50;80.09;100466.41;5004004;28;20538;-73
2022/02/24 05:23:43;;;;;;;3.40;1.00;;;;;;;8.50;80.19;100471.78;5008156;28;20482;-71
2022/02/24 05:26:09;;;;;;;2.95;0.93;;;;;;;8.52;80.36;100461.50;5010174;28;20037;-71
2022/02/24 05:28:34;;;;;;;2.28;0.85;;;;;;;8.40;80.14;100458.13;5004467;28;20036;-73
2022/02/24 05:31:00;;;;;;;3.58;0.80;;;;;;;8.37;80.92;100445.38;5004857;28;20033;-71
2022/02/24 05:33:29;;;;;;;0.85;0.85;;;;;;;8.34;80.90;100443.41;4999209;28;20066;-70
2022/02/24 05:35:56;;;;;;;7.18;1.23;;;;;;;8.39;80.90;100441.22;5000808;28;20581;-71
2022/02/24 05:38:22;;;;;;;3.00;1.17;;;;;;;8.29;81.36;100443.63;5002979;28;20095;-70
2022/02/24 05:40:48;;;;;;;1.08;0.70;;;;;;;8.38;80.99;100442.34;4992632;28;20112;-71
2022/02/24 05:43:14;;;;;;;1.83;0.82;;;;;;;8.24;81.42;100439.28;5004006;28;20487;-70
2022/02/24 05:45:40;;;;;;;1.33;0.85;;;;;;;8.37;80.95;100445.38;4997188;28;20880;-70
2022/02/24 05:48:05;;;;;;;4.18;0.70;;;;;;;8.38;80.86;100439.66;5004186;28;20045;-72
2022/02/24 05:50:31;;;;;;;3.70;1.00;;;;;;;8.36;80.36;100435.78;5000632;28;20434;-70
2022/02/24 05:53:02;;;;;;;2.58;1.38;;;;;;;8.33;80.32;100415.00;5010365;28;20037;-72
2022/02/24 05:55:36;;;;;;;0.82;0.60;;;;;;;8.29;80.58;100425.63;5003980;28;20040;-70
2022/02/24 05:58:03;;;;;;;0.80;0.80;;;;;;;8.14;81.48;100426.38;5008524;28;20045;-70
2022/02/24 06:00:29;;;;;;;4.07;1.10;;;;;;;8.29;81.07;100420.28;5000900;28;20096;-71
2022/02/24 06:02:55;;;;;;;1.50;1.10;;;;;;;8.26;81.30;100420.97;5010526;28;20041;-71
2022/02/24 06:05:20;;;;;;;5.32;1.05;;;;;;;8.36;80.96;100420.47;5011005;28;20046;-71
2022/02/24 06:07:46;;;;;;;1.00;0.90;;;;;;;8.37;80.49;100410.50;4992097;28;20045;-70
2022/02/24 06:10:13;;;;;;;3.75;1.30;;;;;;;8.39;80.64;100402.88;5006119;28;20037;-70
2022/02/24 06:12:38;;;;;;;1.58;1.23;;;;;;;8.34;80.97;100411.19;5011688;28;20041;-70
2022/02/24 06:15:05;;;;;;;1.40;0.98;;;;;;;8.21;81.23;100403.19;5009398;28;20044;-72
2022/02/24 06:17:31;;;;;;;1.85;1.08;;;;;;;8.10;81.29;100410.19;5003167;28;20026;-72
2022/02/24 06:19:56;;;;;;;1.55;1.00;;;;;;;8.18;81.35;100411.94;4995292;28;20529;-70
2022/02/24 06:22:22;;;;;;;5.70;1.20;;;;;;;8.17;80.57;100401.53;5008665;28;20033;-69
2022/02/24 06:24:48;;;;;;;3.50;1.05;;;;;;;8.12;80.73;100404.47;5006200;28;20518;-71
2022/02/24 06:27:14;;;;;;;8.15;2.33;;;;;;;8.19;80.40;100404.66;4995599;28;20030;-70
2022/02/24 06:29:40;;;;;;;3.03;1.33;;;;;;;8.25;79.81;100391.78;5000986;28;20414;-70
2022/02/24 06:32:05;;;;;;;2.22;0.90;;;;;;;8.32;79.73;100397.34;4996627;28;20121;-70
2022/02/24 06:34:31;;;;;;;6.93;1.40;;;;;;;8.51;78.65;100411.66;4991878;28;20049;-73
2022/02/24 06:36:56;;;;;;;1.58;1.42;;;;;;;8.40;78.53;100410.59;4993501;28;20030;-70
2022/02/24 06:39:22;;;;;;;2.42;1.35;;;;;;;8.45;78.57;100396.94;4992572;28;20105;-70
2022/02/24 06:41:48;;;;;;;2.30;1.30;;;;;;;8.48;78.40;100401.59;4994805;28;20026;-71
2022/02/24 06:44:14;;;;;;;1.15;0.90;;;;;;;8.46;78.26;100401.16;5003648;28;20026;-70
2022/02/24 06:46:41;;;;;;;1.73;1.00;;;;;;;8.41;78.34;100406.78;4995391;28;20030;-70
2022/02/24 06:49:06;;;;;;;2.35;1.30;;;;;;;8.32;78.08;100398.13;4995242;28;20045;-71
2022/02/24 06:51:33;;;;;;;5.38;1.27;;;;;;;8.41;77.86;100396.06;5006785;28;20030;-70
2022/02/24 06:53:59;;;;;;;1.40;1.08;;;;;;;8.32;78.27;100394.66;5008623;28;20053;-70
2022/02/24 06:56:24;;;;;;;2.20;1.17;;;;;;;8.45;77.91;100385.41;5009199;28;20084;-72
2022/02/24 06:58:51;;;;;;;2.45;1.30;;;;;;;8.59;76.80;100391.13;4998337;28;20042;-71
2022/02/24 07:01:17;;;;;;;4.82;1.30;;;;;;;8.65;76.46;100382.44;4996798;28;20046;-71
2022/02/24 07:03:43;;;;;;;1.35;0.90;;;;;;;8.64;76.31;100375.53;5013380;28;20037;-71
2022/02/24 07:06:09;;;;;;;2.95;1.52;;;;;;;8.54;76.21;100373.38;5016740;28;20498;-71
2022/02/24 07:08:35;;;;;;;1.85;1.50;;;;;;;8.59;76.62;100369.66;5021900;28;20044;-70
2022/02/24 07:11:02;;;;;;;7.18;1.30;;;;;;;8.70;76.70;100359.94;5020140;28;20034;-70
2022/02/24 07:13:27;;;;;;;1.95;1.20;;;;;;;8.67;76.58;100341.84;5008869;28;20029;-70
2022/02/24 07:15:53;;;;;;;2.78;1.08;;;;;;;8.59;76.80;100348.97;5026741;28;20440;-74
2022/02/24 07:18:18;;;;;;;2.97;1.85;;;;;;;8.46;77.54;100338.69;5009836;28;20030;-70
2022/02/24 07:20:44;;;;;;;1.40;1.17;;;;;;;8.51;77.77;100343.78;5007926;28;20414;-71
2022/02/24 07:23:10;;;;;;;1.00;0.50;;;;;;;8.44;77.92;100343.63;5019377;28;20037;-72
2022/02/24 07:25:35;;;;;;;3.55;1.05;;;;;;;8.59;77.41;100343.59;5010250;28;20395;-70
2022/02/24 07:28:00;;;;;;;2.38;1.10;;;;;;;8.70;77.18;100341.94;5017762;28;20048;-72
2022/02/24 07:30:26;;;;;;;2.90;1.20;;;;;;;8.77;77.52;100347.44;5003383;28;20041;-71
2022/02/24 07:32:51;;;;;;;4.45;1.33;;;;;;;8.69;77.37;100340.34;5007487;28;20581;-71
2022/02/24 07:35:17;;;;;;;4.82;1.42;;;;;;;8.70;78.01;100343.81;5018305;28;20579;-71
2022/02/24 07:37:42;;;;;;;2.28;1.13;;;;;;;8.80;77.89;100335.25;5024097;28;20041;-71
2022/02/24 07:40:09;;;;;;;4.05;1.42;;;;;;;8.83;78.02;100339.91;5006686;28;20030;-71
2022/02/24 07:42:35;;;;;;;1.80;1.13;;;;;;;8.94;77.63;100332.88;5017565;28;20045;-70
2022/02/24 07:45:02;;;;;;;3.17;2.03;;;;;;;8.98;77.52;100334.47;5018718;28;20144;-71
2022/02/24 07:47:27;;;;;;;2.35;1.40;;;;;;;8.94;77.98;100333.63;5007734;28;20038;-70
2022/02/24 07:49:53;;;;;;;7.15;1.20;;;;;;;8.90;78.51;100326.66;5008021;28;20088;-70
2022/02/24 07:52:18;;;;;;;5.22;1.23;;;;;;;8.89;78.71;100327.75;5008216;28;20446;-70
2022/02/24 07:54:44;;;;;;;4.30;1.00;;;;;;;8.85;79.22;100325.00;5018368;28;20037;-70
2022/02/24 07:57:10;;;;;;;3.15;1.13;;;;;;;8.76;79.63;100326.31;5024179;28;20058;-70
2022/02/24 07:59:35;;;;;;;4.03;1.17;;;;;;;8.77;80.02;100320.59;5015947;28;20091;-71
2022/02/24 08:02:00;;;;;;;5.45;1.30;;;;;;;8.96;80.04;100328.69;5009167;28;20052;-71
2022/02/24 08:04:26;;;;;;;4.93;1.67;;;;;;;8.87;79.93;100317.38;5001435;28;20045;-70
2022/02/24 08:06:51;;;;;;;2.53;1.40;;;;;;;8.91;80.17;100309.38;5001140;28;20121;-70
2022/02/24 08:09:17;;;;;;;2.03;1.30;;;;;;;8.89;79.80;100312.44;5012552;28;20041;-71
2022/02/24 08:12:38;;;;;;;4.43;1.40;;;;;;;8.89;80.08;100308.97;5005767;28;20072;-70
2022/02/24 08:14:28;;;;;;;3.15;1.70;;;;;;;8.83;80.29;100305.78;5007257;28;20034;-71
2022/02/24 08:16:53;;;;;;;2.97;1.85;;;;;;;8.75;81.70;100303.31;5009208;28;20494;-71
2022/02/24 08:19:18;;;;;;;1.90;1.30;;;;;;;8.87;82.51;100309.31;5005121;28;20045;-70
2022/02/24 08:21:44;;;;;;;2.58;1.33;;;;;;;9.05;82.16;100301.63;5011422;28;20080;-70
2022/02/24 08:24:09;;;;;;;3.20;1.75;;;;;;;9.09;81.68;100313.22;5006906;28;20046;-71
2022/02/24 08:26:34;;;;;;;3.90;1.27;;;;;;;8.83;82.75;100300.41;5004656;28;20264;-70
2022/02/24 08:29:00;;;;;;;4.93;1.27;;;;;;;8.97;82.76;100284.59;5005705;28;20062;-70
2022/02/24 08:31:26;;;;;;;4.53;1.80;;;;;;;9.10;82.84;100282.53;5008962;28;20056;-70
2022/02/24 08:33:54;;;;;;;3.80;1.65;;;;;;;9.18;82.66;100283.47;5016842;28;20425;-71
2022/02/24 08:36:19;;;;;;;3.67;1.25;;;;;;;9.05;83.04;100278.25;5014185;28;20044;-70
2022/02/24 08:38:45;;;;;;;6.25;1.42;;;;;;;9.07;82.47;100275.19;5021110;28;20061;-70
2022/02/24 08:41:10;;;;;;;6.13;1.40;;;;;;;9.00;82.65;100281.19;5007280;28;20041;-70
2022/02/24 08:43:36;;;;;;;2.47;1.30;;;;;;;9.07;81.53;100267.16;5007057;28;20050;-70
2022/02/24 08:46:01;;;;;;;1.52;1.00;;;;;;;9.19;81.27;100275.06;5007390;28;20044;-71
2022/02/24 08:48:27;;;;;;;4.95;1.08;;;;;;;9.22;80.38;100252.84;5004607;28;20033;-72
2022/02/24 08:50:53;;;;;;;2.53;1.60;;;;;;;9.15;80.73;100246.56;4996517;28;20889;-72
2022/02/24 08:53:19;;;;;;;5.70;1.50;;;;;;;9.14;81.12;100261.91;5000261;28;20026;-71
2022/02/24 08:55:44;;;;;;;5.03;1.73;;;;;;;9.10;80.87;100242.25;4998631;28;20034;-71
2022/02/24 08:58:10;;;;;;;2.58;1.30;;;;;;;9.25;80.69;100235.25;5001977;28;20056;-72
2022/02/24 09:00:35;;;;;;;7.68;0.95;;;;;;;9.29;81.06;100234.16;5003324;28;20026;-72
2022/02/24 09:03:01;;;;;;;3.70;1.10;;;;;;;9.23;80.59;100226.78;5001144;28;20564;-69
2022/02/24 09:05:27;;;;;;;3.78;1.02;;;;;;;9.28;80.79;100223.78;5009817;28;20454;-70
2022/02/24 09:07:52;;;;;;;2.67;1.17;;;;;;;9.16;80.67;100221.25;5011112;28;20057;-72
2022/02/24 09:10:18;;;;;;;3.22;1.27;;;;;;;9.01;80.94;100221.00;5003395;28;20034;-72
2022/02/24 09:12:43;;;;;;;0.95;0.82;;;;;;;9.04;81.47;100214.13;5001444;28;20076;-70
2022/02/24 09:15:09;;;;;;;3.17;1.60;;;;;;;9.09;81.35;100209.25;4997714;28;20021;-72
2022/02/24 09:17:34;;;;;;;2.25;1.00;;;;;;;9.12;81.18;100198.94;4998208;28;20117;-71
2022/02/24 09:20:01;;;;;;;1.25;0.90;;;;;;;9.09;80.55;100201.22;5001004;28;20426;-72
2022/02/24 09:22:26;;;;;;;2.35;0.80;;;;;;;9.06;80.34;100201.91;5005033;28;20605;-71
2022/02/24 09:24:51;;;;;;;1.10;0.88;;;;;;;9.21;80.53;100194.13;5002345;28;20041;-72
2022/02/24 09:27:17;;;;;;;0.82;0.82;;;;;;;9.25;80.61;100189.59;5002023;28;20198;-72
2022/02/24 09:29:42;;;;;;;0.90;0.77;;;;;;;9.18;80.88;100181.38;5001523;28;20046;-72
2022/02/24 09:32:11;;;;;;;1.55;1.05;;;;;;;9.06;80.76;100179.63;5010861;28;20124;-71
2022/02/24 09:34:39;;;;;;;1.05;0.90;;;;;;;9.22;82.29;100166.09;5011439;28;20453;-70
2022/02/24 09:37:04;;;;;;;1.13;0.75;;;;;;;9.30;81.17;100162.41;5002854;28;20125;-71
2022/02/24 09:39:30;;;;;;;5.57;0.82;;;;;;;9.58;80.15;100158.28;5008081;28;20129;-72
2022/02/24 09:41:56;;;;;;;0.75;0.65;;;;;;;9.68;79.27;100146.91;5003657;28;20068;-72
2022/02/24 09:44:21;;;;;;;1.55;0.90;;;;;;;9.72;79.43;100152.34;5005605;28;20041;-72
2022/02/24 09:46:48;;;;;;;3.35;1.00;;;;;;;9.83;79.16;100147.94;5001271;28;20471;-72
2022/02/24 09:49:16;;;;;;;3.63;1.65;;;;;;;9.97;77.87;100150.81;5009702;28;20037;-72
2022/02/24 09:51:43;;;;;;;0.63;0.63;;;;;;;9.83;77.22;100140.63;5010639;28;20033;-72
2022/02/24 09:54:09;;;;;;;7.93;1.23;;;;;;;9.87;77.51;100136.06;5004180;28;20069;-70
2022/02/24 09:56:35;;;;;;;2.40;1.17;;;;;;;9.89;76.64;100133.03;5009075;28;20053;-72
2022/02/24 09:59:00;;;;;;;1.70;0.70;;;;;;;9.92;76.93;100135.00;4989294;28;20041;-70
2022/02/24 10:01:26;;;;;;;1.30;1.02;;;;;;;10.09;77.22;100118.31;5003414;28;20077;-72
2022/02/24 10:03:57;;;;;;;1.00;0.85;;;;;;;9.98;76.30;100112.81;5001021;28;20092;-72
2022/02/24 10:06:40;;;;;;;3.83;0.95;;;;;;;9.88;76.86;100107.25;5002192;28;20606;-72
2022/02/24 10:09:08;;;;;;;1.30;0.77;;;;;;;9.95;77.41;100104.66;5005208;28;20128;-71
2022/02/24 10:11:35;;;;;;;4.05;0.60;;;;;;;9.97;76.96;100110.47;4992309;28;20042;-72
2022/02/24 10:14:20;;;;;;;2.78;1.10;;;;;;;10.04;76.83;100099.81;4989644;28;20042;-72
2022/02/24 10:16:52;;;;;;;1.15;0.70;;;;;;;10.14;76.74;100093.84;4996831;28;20034;-71
2022/02/24 10:19:25;;;;;;;2.20;1.15;;;;;;;10.06;76.32;100086.78;4996184;28;20044;-71
2022/02/24 10:22:13;;;;;;;0.60;0.60;;;;;;;10.10;75.43;100086.84;4993299;28;20081;-71
2022/02/24 10:24:41;;;;;;;1.20;0.75;;;;;;;9.98;75.56;100069.00;5002420;28;20045;-72
2022/02/24 10:27:19;;;;;;;1.10;0.70;;;;;;;10.32;74.69;100059.81;5003561;28;20123;-72
2022/02/24 10:30:19;;;;;;;3.88;0.95;;;;;;;10.27;73.51;100054.00;4999365;28;20542;-70
2022/02/24 10:32:50;;;;;;;3.90;0.82;;;;;;;10.38;74.39;100034.13;5001206;28;20038;-72
2022/02/24 10:35:40;;;;;;;1.08;0.80;;;;;;;10.59;73.85;100031.66;5004673;28;20037;-72
2022/02/24 10:38:11;;;;;;;1.52;0.70;;;;;;;10.33;72.98;100021.03;4987912;28;20764;-72
2022/02/24 10:40:42;;;;;;;1.08;0.85;;;;;;;10.41;73.59;100013.78;4998442;28;20033;-71
2022/02/24 10:43:17;;;;;;;5.13;0.85;;;;;;;10.47;72.53;100013.06;5004994;28;20034;-72
2022/02/24 10:45:56;;;;;;;2.47;1.10;;;;;;;10.41;73.50;100003.81;4997947;28;20034;-72
2022/02/24 10:48:21;;;;;;;1.65;1.00;;;;;;;10.53;73.22;99997.38;4996825;28;20054;-72
2022/02/24 10:50:57;;;;;;;2.25;0.95;;;;;;;10.46;72.73;99992.69;4990717;28;20045;-71
2022/02/24 10:53:30;;;;;;;1.73;1.02;;;;;;;10.64;72.98;99995.56;4995140;28;20038;-71
2022/02/24 10:56:09;;;;;;;1.13;0.70;;;;;;;10.74;72.58;99984.88;5003059;28;20117;-70
2022/02/24 10:58:42;;;;;;;6.25;1.05;;;;;;;10.88;72.14;99966.13;4998535;28;20076;-72
2022/02/24 11:01:10;;;;;;;1.30;0.90;;;;;;;11.19;71.52;99969.44;4997085;28;20037;-71
2022/02/24 11:03:36;;;;;;;3.58;0.70;;;;;;;11.41;70.67;99955.72;5002316;28;20963;-72
2022/02/24 11:06:04;;;;;;;2.38;1.10;;;;;;;11.27;69.64;99960.22;5004792;28;20648;-72
2022/02/24 11:08:30;;;;;;;3.60;0.90;;;;;;;11.11;70.22;99963.22;5000571;28;20038;-72
2022/02/24 11:10:57;;;;;;;2.92;0.70;;;;;;;10.98;70.70;99953.88;4998774;28;20445;-71
2022/02/24 11:13:23;;;;;;;2.58;0.90;;;;;;;11.02;70.56;99945.81;5000610;28;20038;-73
2022/02/24 11:15:49;;;;;;;1.27;0.73;;;;;;;10.85;71.54;99939.19;4997965;28;20084;-71
2022/02/24 11:18:16;;;;;;;2.10;0.73;;;;;;;11.00;70.96;99954.28;4998854;28;20611;-72
2022/02/24 11:20:42;;;;;;;2.40;1.08;;;;;;;10.99;69.77;99943.88;5003338;28;20022;-72
2022/02/24 11:23:07;;;;;;;3.63;0.85;;;;;;;11.10;69.65;99945.50;4985878;28;20521;-71
2022/02/24 11:25:41;;;;;;;2.05;0.73;;;;;;;11.30;68.56;99932.53;5006961;28;20042;-72
2022/02/24 11:28:08;;;;;;;1.88;0.90;;;;;;;11.29;68.01;99920.19;5004569;28;20503;-71
2022/02/24 11:30:34;;;;;;;2.72;1.05;;;;;;;11.35;68.27;99907.91;5009005;28;20083;-71
2022/02/24 11:33:00;;;;;;;2.47;0.98;;;;;;;10.85;68.63;99901.47;5010939;28;20121;-71